Accueil
METAR-TAF:

METAR-TAF

Aéroports :

Maré, Nouvelle-Calédonie

Aérodrome de Maré - La Roche

latitude: 21-28-53S, longitude: 168-02-15E, altitude: 42 m

METAR: absent

Heure: 17:30 (06:30 UTC)

Prévision

Le bulletin a été fait il y a 13 heures et 30 minutes, à 17:00 UTC
Prévision valable du 11 à 18 UTC au 12 à 18 UTC
Vent 8 kt de nord-est
Visibilité 10 km ou plus
Nuages épars à une hauteur de 2000 ft
Nuages fragmentés à une hauteur de 3500 ft
Temporairement
du 11 à 18 UTC au 11 à 21 UTC
Nuages fragmentés à une hauteur de 800 ft
averses de pluie
Temporairement
du 11 à 23 UTC au 12 à 04 UTC
Visibilité: 2500 m
Nuages fragmentés à une hauteur de 1000 ft
Nuages épars à une hauteur de 1800 ft, Cumulus congestus.
fortes averses de pluie

TAF: NWWR 111700Z 1118/1218 04008KT 9999 SCT020 BKN035 TEMPO 1118/1121 SHRA BKN008 TEMPO 1123/1204 2500 +SHRA BKN010 SCT018TCU

Observations et prévisions météorologiques de plus de 4000 aéroports (messages METAR et TAF).

Les stations disponibles sont représentées par des disques jaunes et rouges sur la carte.

Passer la souris dessus pour voir le nom de la station.

Cliquer dessus pour voir les observations et prévisions météorologiques.

Pour changer de carte: cliquez sur les boutons verts avec une croix noire pour zoomer, sur le bouton vert avec un tiret pour effectuer un zoom arrière, ou sur les flèches vertes pour les cartes adjacentes.


METAR-TAF: